Terminal Aerodrome Forecast
Issued by NWS

Home | Current Version | Previous Version | Text Only | Print | Product List | Glossary On
Versions: 1 2 3 4 5 6 7 8 9 10 11 12 13 14 15 16 17 18 19 20 21 22
000
FTUS41 KCAR 291700 RRA
TAFBHB
TAF
KBHB 291745Z 2918/3018 24007KT P6SM SCT040
     FM300100 21006KT P6SM SKC
     FM300600 00000KT 3SM BR SKC
     FM300800 00000KT 1/2SM FG SCT001
     FM301000 VRB03KT 3SM BR SKC
     FM301200 15006KT P6SM SKC
      AMD LTD TO CLD VIS AND WIND=

USA.gov is the U.S. government's official web portal to all federal, state and local government web resources and services.